Time,TemperatureF,DewpointF,PressureIn,WindDirection,WindDirectionDegrees,WindSpeedMPH,WindSpeedGustMPH,Humidity,HourlyPrecipIn,Conditions,Clouds,dailyrainin,SoftwareType,DateUTC
2013-04-07 00:00:00,65.7,57.9,29.80,South,178,0.0,0.0,76,0.00,,,0.00,Wunderground v.1.15,2013-04-07 05:00:00,
2013-04-07 00:10:00,65.3,57.5,29.80,South,178,0.0,0.0,76,0.00,,,0.00,Wunderground v.1.15,2013-04-07 05:10:00,
2013-04-07 00:20:00,64.7,57.7,29.79,South,178,0.0,0.0,78,0.00,,,0.00,Wunderground v.1.15,2013-04-07 05:20:00,
2013-04-07 00:30:00,64.2,57.5,29.79,South,178,0.0,0.0,79,0.00,,,0.00,Wunderground v.1.15,2013-04-07 05:30:00,
2013-04-07 00:40:00,63.8,57.5,29.79,South,178,0.0,0.0,80,0.00,,,0.00,Wunderground v.1.15,2013-04-07 05:40:00,
2013-04-07 00:50:00,63.4,57.5,29.79,South,178,0.0,0.0,81,0.00,,,0.00,Wunderground v.1.15,2013-04-07 05:50:00,
2013-04-07 01:00:00,63.0,57.1,29.79,South,178,0.0,0.0,81,0.00,,,0.00,Wunderground v.1.15,2013-04-07 06:00:00,
2013-04-07 01:10:00,62.9,57.3,29.79,South,178,0.0,0.0,82,0.00,,,0.00,Wunderground v.1.15,2013-04-07 06:10:00,
2013-04-07 01:20:00,62.8,57.2,29.79,South,178,0.0,0.0,82,0.00,,,0.00,Wunderground v.1.15,2013-04-07 06:20:00,
2013-04-07 01:30:00,62.7,57.5,29.79,South,178,0.0,0.0,83,0.00,,,0.00,Wunderground v.1.15,2013-04-07 06:30:00,
2013-04-07 01:40:00,62.5,57.3,29.79,South,178,0.0,0.0,83,0.00,,,0.00,Wunderground v.1.15,2013-04-07 06:40:00,
2013-04-07 01:50:00,62.1,56.9,29.79,South,178,0.0,0.0,83,0.00,,,0.00,Wunderground v.1.15,2013-04-07 06:50:00,
2013-04-07 02:00:00,61.7,56.8,29.80,South,178,0.0,0.0,84,0.00,,,0.00,Wunderground v.1.15,2013-04-07 07:00:00,
2013-04-07 02:10:00,61.3,56.4,29.80,South,178,0.0,0.0,84,0.00,,,0.00,Wunderground v.1.15,2013-04-07 07:10:00,
2013-04-07 02:20:00,60.9,56.4,29.80,South,178,0.0,0.0,85,0.00,,,0.00,Wunderground v.1.15,2013-04-07 07:20:00,
2013-04-07 02:30:00,60.6,56.1,29.80,South,178,0.0,0.0,85,0.00,,,0.00,Wunderground v.1.15,2013-04-07 07:30:00,
2013-04-07 02:40:00,60.2,56.0,29.79,South,178,0.0,0.0,86,0.00,,,0.00,Wunderground v.1.15,2013-04-07 07:40:00,
2013-04-07 02:50:00,59.9,56.0,29.80,South,178,0.0,0.0,87,0.00,,,0.00,Wunderground v.1.15,2013-04-07 07:50:00,
2013-04-07 03:00:00,59.6,56.0,29.80,South,178,0.0,0.0,88,0.00,,,0.00,Wunderground v.1.15,2013-04-07 08:00:00,
2013-04-07 03:10:00,59.4,55.8,29.79,South,178,0.0,0.0,88,0.00,,,0.00,Wunderground v.1.15,2013-04-07 08:10:00,
2013-04-07 03:20:00,59.0,55.4,29.79,South,178,0.0,0.0,88,0.00,,,0.00,Wunderground v.1.15,2013-04-07 08:20:00,
2013-04-07 03:30:00,58.7,55.5,29.78,South,178,0.0,0.0,89,0.00,,,0.00,Wunderground v.1.15,2013-04-07 08:30:00,
2013-04-07 03:40:00,58.5,55.3,29.78,South,178,0.0,0.0,89,0.00,,,0.00,Wunderground v.1.15,2013-04-07 08:40:00,
2013-04-07 03:50:00,58.2,55.0,29.78,South,178,0.0,0.0,89,0.00,,,0.00,Wunderground v.1.15,2013-04-07 08:50:00,
2013-04-07 04:00:00,58.0,55.1,29.78,South,178,0.0,0.0,90,0.00,,,0.00,Wunderground v.1.15,2013-04-07 09:00:00,
2013-04-07 04:10:00,57.9,55.0,29.78,South,178,0.0,0.0,90,0.00,,,0.00,Wunderground v.1.15,2013-04-07 09:10:00,
2013-04-07 04:20:00,57.8,54.9,29.78,South,178,0.0,0.0,90,0.00,,,0.00,Wunderground v.1.15,2013-04-07 09:20:00,
2013-04-07 04:30:00,57.7,54.8,29.77,South,178,0.0,0.0,90,0.00,,,0.00,Wunderground v.1.15,2013-04-07 09:30:00,
2013-04-07 04:40:00,57.5,54.6,29.77,South,178,0.0,0.0,90,0.00,,,0.00,Wunderground v.1.15,2013-04-07 09:40:00,
2013-04-07 04:50:00,57.2,54.6,29.77,South,178,0.0,0.0,91,0.00,,,0.00,Wunderground v.1.15,2013-04-07 09:50:00,
2013-04-07 05:00:00,56.9,54.3,29.77,South,178,0.0,0.0,91,0.00,,,0.00,Wunderground v.1.15,2013-04-07 10:00:00,
2013-04-07 05:10:00,56.7,54.1,29.77,South,178,0.0,0.0,91,0.00,,,0.00,Wunderground v.1.15,2013-04-07 10:10:00,
2013-04-07 05:20:00,56.6,54.3,29.77,South,178,0.0,0.0,92,0.00,,,0.00,Wunderground v.1.15,2013-04-07 10:20:00,
2013-04-07 05:30:00,56.4,54.1,29.77,South,178,0.0,0.0,92,0.00,,,0.00,Wunderground v.1.15,2013-04-07 10:30:00,
2013-04-07 05:50:00,56.2,53.9,29.77,South,178,0.0,0.0,92,0.00,,,0.00,Wunderground v.1.15,2013-04-07 10:50:00,
2013-04-07 06:00:00,56.0,53.7,29.78,South,178,0.0,0.0,92,0.00,,,0.00,Wunderground v.1.15,2013-04-07 11:00:00,
2013-04-07 06:10:00,55.9,53.9,29.78,South,178,0.0,0.0,93,0.00,,,0.00,Wunderground v.1.15,2013-04-07 11:10:00,
2013-04-07 06:20:00,55.8,53.8,29.78,South,178,0.0,0.0,93,0.00,,,0.00,Wunderground v.1.15,2013-04-07 11:20:00,
2013-04-07 06:30:00,55.9,54.2,29.79,South,178,0.0,0.0,94,0.00,,,0.00,Wunderground v.1.15,2013-04-07 11:30:00,
2013-04-07 06:40:00,56.2,54.5,29.79,South,178,0.0,0.0,94,0.00,,,0.00,Wunderground v.1.15,2013-04-07 11:40:00,
2013-04-07 06:50:00,56.6,54.9,29.79,South,178,0.0,0.0,94,0.00,,,0.00,Wunderground v.1.15,2013-04-07 11:50:00,
2013-04-07 07:00:00,57.0,55.3,29.79,South,178,1.0,2.0,94,0.00,,,0.00,Wunderground v.1.15,2013-04-07 12:00:00,
2013-04-07 07:10:00,57.5,55.8,29.79,South,178,2.0,4.0,94,0.00,,,0.00,Wunderground v.1.15,2013-04-07 12:10:00,
2013-04-07 07:20:00,57.8,56.1,29.79,South,178,4.0,4.0,94,0.00,,,0.00,Wunderground v.1.15,2013-04-07 12:20:00,
2013-04-07 07:30:00,58.0,56.3,29.80,South,178,3.0,3.0,94,0.00,,,0.00,Wunderground v.1.15,2013-04-07 12:30:00,
2013-04-07 07:40:00,58.2,56.5,29.81,South,178,3.0,4.0,94,0.00,,,0.00,Wunderground v.1.15,2013-04-07 12:40:00,
2013-04-07 07:50:00,58.5,56.5,29.80,South,178,2.0,2.0,93,0.00,,,0.00,Wunderground v.1.15,2013-04-07 12:50:00,
2013-04-07 08:00:00,58.7,56.7,29.81,South,178,3.0,6.0,93,0.00,,,0.00,Wunderground v.1.15,2013-04-07 13:00:00,
2013-04-07 08:10:00,59.0,57.0,29.81,South,178,4.0,4.0,93,0.00,,,0.00,Wunderground v.1.15,2013-04-07 13:10:00,
2013-04-07 08:20:00,59.3,57.3,29.81,South,178,3.0,4.0,93,0.00,,,0.00,Wunderground v.1.15,2013-04-07 13:20:00,
2013-04-07 08:30:00,59.8,57.8,29.81,South,177,4.0,4.0,93,0.00,,,0.00,Wunderground v.1.15,2013-04-07 13:30:00,
2013-04-07 08:50:00,61.0,58.7,29.81,SSE,161,7.0,7.0,92,0.00,,,0.00,Wunderground v.1.15,2013-04-07 13:50:00,
2013-04-07 09:00:00,61.4,59.1,29.81,SSE,161,6.0,8.0,92,0.00,,,0.00,Wunderground v.1.15,2013-04-07 14:00:00,
2013-04-07 09:10:00,61.8,59.1,29.81,SSE,161,6.0,6.0,91,0.00,,,0.00,Wunderground v.1.15,2013-04-07 14:10:00,
2013-04-07 09:20:00,62.2,59.5,29.82,SSE,156,7.0,7.0,91,0.00,,,0.00,Wunderground v.1.15,2013-04-07 14:20:00,
2013-04-07 09:30:00,62.8,59.8,29.81,SSE,163,6.0,6.0,90,0.00,,,0.00,Wunderground v.1.15,2013-04-07 14:30:00,
2013-04-07 09:40:00,63.6,60.3,29.81,South,175,7.0,8.0,89,0.00,,,0.00,Wunderground v.1.15,2013-04-07 14:40:00,
2013-04-07 09:50:00,64.1,60.5,29.81,South,171,9.0,14.0,88,0.00,,,0.00,Wunderground v.1.15,2013-04-07 14:50:00,
2013-04-07 10:00:00,64.4,60.4,29.80,South,177,10.0,10.0,87,0.00,,,0.00,Wunderground v.1.15,2013-04-07 15:00:00,
2013-04-07 10:10:00,64.8,60.8,29.80,SSE,167,10.0,13.0,87,0.00,,,0.00,Wunderground v.1.15,2013-04-07 15:10:00,
2013-04-07 10:20:00,65.0,60.7,29.81,South,169,12.0,12.0,86,0.00,,,0.00,Wunderground v.1.15,2013-04-07 15:20:00,
2013-04-07 10:30:00,65.2,60.9,29.80,SSE,157,12.0,16.0,86,0.00,,,0.00,Wunderground v.1.15,2013-04-07 15:30:00,
2013-04-07 10:40:00,65.8,61.2,29.80,South,169,10.0,10.0,85,0.00,,,0.00,Wunderground v.1.15,2013-04-07 15:40:00,
2013-04-07 10:50:00,66.3,61.3,29.80,SSW,192,11.0,11.0,84,0.00,,,0.00,Wunderground v.1.15,2013-04-07 15:50:00,
2013-04-07 11:00:00,67.1,61.8,29.80,SSE,162,10.0,13.0,83,0.00,,,0.00,Wunderground v.1.15,2013-04-07 16:00:00,
2013-04-07 11:10:00,67.9,62.2,29.80,South,180,12.0,16.0,82,0.00,,,0.00,Wunderground v.1.15,2013-04-07 16:10:00,
2013-04-07 11:20:00,68.9,62.1,29.80,SSE,160,13.0,16.0,79,0.00,,,0.00,Wunderground v.1.15,2013-04-07 16:20:00,
2013-04-07 11:30:00,69.3,62.5,29.80,SSE,166,14.0,15.0,79,0.00,,,0.00,Wunderground v.1.15,2013-04-07 16:30:00,
2013-04-07 11:40:00,70.0,62.5,29.79,SSE,164,15.0,15.0,77,0.00,,,0.00,Wunderground v.1.15,2013-04-07 16:40:00,
2013-04-07 11:50:00,70.6,62.3,29.79,South,184,15.0,15.0,75,0.00,,,0.00,Wunderground v.1.15,2013-04-07 16:50:00,
2013-04-07 12:00:00,71.8,63.1,29.79,SSE,156,12.0,15.0,74,0.00,,,0.00,Wunderground v.1.15,2013-04-07 17:00:00,
2013-04-07 12:10:00,72.5,63.4,29.79,SSW,196,13.0,13.0,73,0.00,,,0.00,Wunderground v.1.15,2013-04-07 17:10:00,
2013-04-07 12:20:00,73.0,63.4,29.78,South,173,12.0,17.0,72,0.00,,,0.00,Wunderground v.1.15,2013-04-07 17:20:00,
2013-04-07 12:30:00,73.3,63.7,29.77,SSE,165,11.0,11.0,72,0.00,,,0.00,Wunderground v.1.15,2013-04-07 17:30:00,
2013-04-07 12:40:00,73.9,64.3,29.76,SSE,152,15.0,18.0,72,0.00,,,0.00,Wunderground v.1.15,2013-04-07 17:40:00,
2013-04-07 12:50:00,74.8,63.9,29.76,South,188,14.0,14.0,69,0.00,,,0.00,Wunderground v.1.15,2013-04-07 17:50:00,
2013-04-07 13:00:00,75.9,63.7,29.75,South,176,11.0,15.0,66,0.00,,,0.00,Wunderground v.1.15,2013-04-07 18:00:00,
2013-04-07 13:10:00,75.9,63.7,29.75,South,173,9.0,11.0,66,0.00,,,0.00,Wunderground v.1.15,2013-04-07 18:10:00,
2013-04-07 13:20:00,77.0,64.8,29.74,South,180,9.0,17.0,66,0.00,,,0.00,Wunderground v.1.15,2013-04-07 18:20:00,
2013-04-07 13:30:00,78.2,64.6,29.73,South,173,11.0,13.0,63,0.00,,,0.00,Wunderground v.1.15,2013-04-07 18:30:00,
2013-04-07 13:40:00,78.6,64.5,29.73,South,175,12.0,12.0,62,0.00,,,0.00,Wunderground v.1.15,2013-04-07 18:40:00,
2013-04-07 13:50:00,79.2,64.1,29.73,South,182,11.0,11.0,60,0.00,,,0.00,Wunderground v.1.15,2013-04-07 18:50:00,
2013-04-07 14:00:00,79.5,64.9,29.72,SSW,202,10.0,10.0,61,0.00,,,0.00,Wunderground v.1.15,2013-04-07 19:00:00,
2013-04-07 14:10:00,79.8,65.2,29.72,South,182,12.0,14.0,61,0.00,,,0.00,Wunderground v.1.15,2013-04-07 19:10:00,
2013-04-07 14:20:00,80.3,63.7,29.72,SSE,167,12.0,12.0,57,0.00,,,0.00,Wunderground v.1.15,2013-04-07 19:20:00,
2013-04-07 14:30:00,80.6,63.5,29.71,South,173,12.0,12.0,56,0.00,,,0.00,Wunderground v.1.15,2013-04-07 19:30:00,
2013-04-07 14:40:00,81.1,64.4,29.70,South,183,10.0,16.0,57,0.00,,,0.00,Wunderground v.1.15,2013-04-07 19:40:00,
2013-04-07 14:50:00,81.1,64.4,29.70,South,169,13.0,14.0,57,0.00,,,0.00,Wunderground v.1.15,2013-04-07 19:50:00,
2013-04-07 15:00:00,81.7,64.0,29.69,SSE,165,11.0,11.0,55,0.00,,,0.00,Wunderground v.1.15,2013-04-07 20:00:00,
2013-04-07 15:10:00,81.3,64.1,29.69,South,174,14.0,14.0,56,0.00,,,0.00,Wunderground v.1.15,2013-04-07 20:10:00,
2013-04-07 15:20:00,81.6,64.4,29.68,SSW,192,13.0,19.0,56,0.00,,,0.00,Wunderground v.1.15,2013-04-07 20:20:00,
2013-04-07 15:30:00,81.7,64.0,29.68,SSE,168,12.0,12.0,55,0.00,,,0.00,Wunderground v.1.15,2013-04-07 20:30:00,
2013-04-07 15:40:00,82.3,64.5,29.67,South,175,12.0,13.0,55,0.00,,,0.00,Wunderground v.1.15,2013-04-07 20:40:00,
2013-04-07 15:50:00,82.7,64.4,29.67,South,175,13.0,16.0,54,0.00,,,0.00,Wunderground v.1.15,2013-04-07 20:50:00,
2013-04-07 16:00:00,82.9,64.5,29.66,South,174,12.0,14.0,54,0.00,,,0.00,Wunderground v.1.15,2013-04-07 21:00:00,
2013-04-07 16:10:00,82.7,63.8,29.66,South,176,13.0,16.0,53,0.00,,,0.00,Wunderground v.1.15,2013-04-07 21:10:00,
2013-04-07 16:20:00,82.5,65.2,29.65,SSE,165,13.0,14.0,56,0.00,,,0.00,Wunderground v.1.15,2013-04-07 21:20:00,
2013-04-07 16:30:00,82.0,64.8,29.65,SSE,166,14.0,17.0,56,0.00,,,0.00,Wunderground v.1.15,2013-04-07 21:30:00,
2013-04-07 16:40:00,81.1,65.4,29.65,SSE,153,15.0,16.0,59,0.00,,,0.00,Wunderground v.1.15,2013-04-07 21:40:00,
2013-04-07 17:00:00,81.2,65.0,29.64,SE,140,15.0,20.0,58,0.00,,,0.00,Wunderground v.1.15,2013-04-07 22:00:00,
2013-04-07 17:10:00,80.7,65.0,29.64,South,176,17.0,17.0,59,0.00,,,0.00,Wunderground v.1.15,2013-04-07 22:10:00,
2013-04-07 17:20:00,80.8,65.6,29.64,South,182,15.0,15.0,60,0.00,,,0.00,Wunderground v.1.15,2013-04-07 22:20:00,
2013-04-07 17:30:00,80.7,65.5,29.63,SSE,149,15.0,19.0,60,0.00,,,0.00,Wunderground v.1.15,2013-04-07 22:30:00,
2013-04-07 17:40:00,80.9,65.2,29.63,SSE,157,14.0,14.0,59,0.00,,,0.00,Wunderground v.1.15,2013-04-07 22:40:00,
2013-04-07 17:50:00,80.5,64.9,29.63,SSE,161,17.0,20.0,59,0.00,,,0.00,Wunderground v.1.15,2013-04-07 22:50:00,
2013-04-07 18:00:00,80.4,64.3,29.63,SSE,150,17.0,19.0,58,0.00,,,0.00,Wunderground v.1.15,2013-04-07 23:00:00,
2013-04-07 18:10:00,80.1,64.5,29.63,SSE,155,17.0,17.0,59,0.00,,,0.00,Wunderground v.1.15,2013-04-07 23:10:00,
2013-04-07 18:20:00,80.2,64.6,29.63,SSE,161,15.0,19.0,59,0.00,,,0.00,Wunderground v.1.15,2013-04-07 23:20:00,
2013-04-07 18:30:00,79.7,64.1,29.64,SSE,167,16.0,16.0,59,0.00,,,0.00,Wunderground v.1.15,2013-04-07 23:30:00,
2013-04-07 18:40:00,79.1,64.0,29.64,SSE,155,18.0,18.0,60,0.00,,,0.00,Wunderground v.1.15,2013-04-07 23:40:00,
2013-04-07 18:50:00,78.8,64.2,29.64,SSE,156,16.0,20.0,61,0.00,,,0.00,Wunderground v.1.15,2013-04-07 23:50:00,
2013-04-07 19:00:00,78.5,63.9,29.64,South,169,17.0,22.0,61,0.00,,,0.00,Wunderground v.1.15,2013-04-08 00:00:00,
2013-04-07 19:10:00,78.1,64.0,29.64,SSE,168,16.0,16.0,62,0.00,,,0.00,Wunderground v.1.15,2013-04-08 00:10:00,
2013-04-07 19:20:00,77.5,63.9,29.64,SSE,156,16.0,21.0,63,0.00,,,0.00,Wunderground v.1.15,2013-04-08 00:20:00,
2013-04-07 19:30:00,77.2,63.6,29.64,SSE,164,16.0,16.0,63,0.00,,,0.00,Wunderground v.1.15,2013-04-08 00:30:00,
2013-04-07 19:40:00,77.0,63.4,29.64,South,175,14.0,15.0,63,0.00,,,0.00,Wunderground v.1.15,2013-04-08 00:40:00,
2013-04-07 19:50:00,76.8,63.2,29.64,SSE,155,16.0,22.0,63,0.00,,,0.00,Wunderground v.1.15,2013-04-08 00:50:00,
2013-04-07 20:00:00,76.4,63.3,29.64,SSE,168,14.0,19.0,64,0.00,,,0.00,Wunderground v.1.15,2013-04-08 01:00:00,
2013-04-07 20:10:00,76.4,63.3,29.64,South,171,13.0,13.0,64,0.00,,,0.00,Wunderground v.1.15,2013-04-08 01:10:00,
2013-04-07 20:20:00,76.0,63.4,29.64,SSE,167,12.0,12.0,65,0.00,,,0.00,Wunderground v.1.15,2013-04-08 01:20:00,
2013-04-07 20:30:00,76.0,63.4,29.65,South,190,13.0,13.0,65,0.00,,,0.00,Wunderground v.1.15,2013-04-08 01:30:00,
2013-04-07 20:40:00,75.8,63.2,29.64,SSE,162,13.0,15.0,65,0.00,,,0.00,Wunderground v.1.15,2013-04-08 01:40:00,
2013-04-07 20:50:00,75.5,63.3,29.65,South,175,12.0,12.0,66,0.00,,,0.00,Wunderground v.1.15,2013-04-08 01:50:00,
2013-04-07 21:00:00,75.1,63.4,29.64,South,171,11.0,11.0,67,0.00,,,0.00,Wunderground v.1.15,2013-04-08 02:00:00,
2013-04-07 21:10:00,74.9,63.2,29.65,South,177,10.0,13.0,67,0.00,,,0.00,Wunderground v.1.15,2013-04-08 02:10:00,
2013-04-07 21:20:00,75.0,63.3,29.65,South,182,11.0,11.0,67,0.00,,,0.00,Wunderground v.1.15,2013-04-08 02:20:00,
2013-04-07 21:30:00,74.9,63.2,29.65,South,182,10.0,10.0,67,0.00,,,0.00,Wunderground v.1.15,2013-04-08 02:30:00,
2013-04-07 21:40:00,74.7,63.0,29.65,South,182,11.0,11.0,67,0.00,,,0.00,Wunderground v.1.15,2013-04-08 02:40:00,
2013-04-07 21:50:00,74.8,62.7,29.66,South,174,10.0,10.0,66,0.00,,,0.00,Wunderground v.1.15,2013-04-08 02:50:00,
2013-04-07 22:00:00,74.5,62.8,29.66,South,175,9.0,9.0,67,0.00,,,0.00,Wunderground v.1.15,2013-04-08 03:00:00,
2013-04-07 22:10:00,74.4,62.7,29.66,SSE,167,9.0,9.0,67,0.00,,,0.00,Wunderground v.1.15,2013-04-08 03:10:00,
2013-04-07 22:20:00,74.0,62.3,29.66,SSE,160,9.0,9.0,67,0.00,,,0.00,Wunderground v.1.15,2013-04-08 03:20:00,
2013-04-07 22:30:00,73.4,62.6,29.67,SSE,150,8.0,11.0,69,0.00,,,0.00,Wunderground v.1.15,2013-04-08 03:30:00,
2013-04-07 22:40:00,73.2,62.4,29.67,SSE,167,12.0,13.0,69,0.00,,,0.00,Wunderground v.1.15,2013-04-08 03:40:00,
2013-04-07 22:50:00,72.8,62.0,29.67,SSE,159,14.0,14.0,69,0.00,,,0.00,Wunderground v.1.15,2013-04-08 03:50:00,
2013-04-07 23:00:00,72.4,62.1,29.67,SSE,161,13.0,13.0,70,0.00,,,0.00,Wunderground v.1.15,2013-04-08 04:00:00,
2013-04-07 23:10:00,72.0,62.1,29.67,SSE,158,13.0,13.0,71,0.00,,,0.00,Wunderground v.1.15,2013-04-08 04:10:00,
2013-04-07 23:20:00,71.3,61.8,29.67,SE,139,12.0,14.0,72,0.00,,,0.00,Wunderground v.1.15,2013-04-08 04:20:00,
2013-04-07 23:30:00,71.0,61.5,29.68,SSE,150,15.0,15.0,72,0.00,,,0.00,Wunderground v.1.15,2013-04-08 04:30:00,
2013-04-07 23:40:00,70.4,61.7,29.68,SSE,159,14.0,16.0,74,0.00,,,0.00,Wunderground v.1.15,2013-04-08 04:40:00,
2013-04-07 23:50:00,69.8,61.5,29.68,SE,142,14.0,19.0,75,0.00,,,0.00,Wunderground v.1.15,2013-04-08 04:50:00,